createdAt,value
2022-09-17T00:01:08.864Z,10.4
2022-09-17T00:05:16.801Z,10.4
2022-09-17T00:07:20.720Z,10.4
2022-09-17T00:09:24.670Z,10.4
2022-09-17T00:11:31.487Z,10.4
2022-09-17T00:13:35.407Z,10.4
2022-09-17T00:17:43.243Z,10.3
2022-09-17T00:19:47.148Z,10.3
2022-09-17T00:21:51.053Z,10.3
2022-09-17T00:23:55.029Z,10.3
2022-09-17T00:26:01.782Z,10.3
2022-09-17T00:28:05.722Z,10.3
2022-09-17T00:30:09.724Z,10.4
2022-09-17T00:31:13.264Z,10.4
2022-09-17T00:33:17.213Z,10.4
2022-09-17T00:35:21.114Z,10.3
2022-09-17T00:37:25.148Z,10.4
2022-09-17T00:39:31.920Z,10.4
2022-09-17T00:41:35.977Z,10.4
2022-09-17T00:43:39.980Z,10.4
2022-09-17T00:47:47.988Z,10.4
2022-09-17T00:49:51.898Z,10.3
2022-09-17T00:52:00.173Z,10.3
2022-09-17T00:54:02.755Z,10.1
2022-09-17T00:56:06.750Z,10.1
2022-09-17T00:58:10.669Z,10
2022-09-17T01:00:14.693Z,10
2022-09-17T01:02:18.650Z,9.9
2022-09-17T01:10:37.583Z,9.7
2022-09-17T01:12:41.607Z,9.7
2022-09-17T01:14:45.581Z,9.7
2022-09-17T01:16:49.615Z,9.6
2022-09-17T01:18:53.617Z,9.6
2022-09-17T01:20:57.591Z,9.7
2022-09-17T01:23:04.417Z,9.8
2022-09-17T01:25:08.323Z,9.8
2022-09-17T01:27:13.832Z,9.9
2022-09-17T01:28:17.261Z,10
2022-09-17T01:30:21.262Z,10
2022-09-17T01:34:29.052Z,10
2022-09-17T01:36:35.784Z,10
2022-09-17T01:38:39.775Z,10.1
2022-09-17T01:40:43.676Z,10
2022-09-17T01:42:47.597Z,10
2022-09-17T01:44:51.507Z,10
2022-09-17T01:46:55.487Z,10.1
2022-09-17T01:48:59.325Z,10.1
2022-09-17T01:51:06.047Z,10.1
2022-09-17T01:53:09.982Z,10
2022-09-17T01:55:13.890Z,10.1
2022-09-17T01:57:17.899Z,10.2
2022-09-17T02:01:25.890Z,10.1
2022-09-17T02:03:29.707Z,10
2022-09-17T02:05:36.641Z,10
2022-09-17T02:07:40.557Z,9.9
2022-09-17T02:09:44.543Z,9.9
2022-09-17T02:11:48.432Z,9.9
2022-09-17T02:15:56.485Z,9.9
2022-09-17T02:18:00.356Z,9.9
2022-09-17T02:20:07.194Z,9.9
2022-09-17T02:22:11.172Z,9.9
2022-09-17T02:24:15.096Z,9.8
2022-09-17T02:25:18.548Z,9.7
2022-09-17T02:27:22.533Z,9.7
2022-09-17T02:29:26.462Z,9.7
2022-09-17T02:31:30.519Z,9.6
2022-09-17T02:33:37.286Z,9.6
2022-09-17T02:35:42.090Z,9.6
2022-09-17T02:37:45.853Z,9.7
2022-09-17T02:39:49.795Z,9.7
2022-09-17T02:41:53.647Z,9.7
2022-09-17T02:43:57.721Z,9.7
2022-09-17T02:46:01.552Z,9.7
2022-09-17T02:48:08.374Z,9.7
2022-09-17T02:50:12.375Z,9.7
2022-09-17T02:52:16.382Z,9.8
2022-09-17T02:54:20.368Z,9.7
2022-09-17T02:56:24.263Z,9.7
2022-09-17T02:58:28.260Z,9.7
2022-09-17T03:00:32.306Z,9.7
2022-09-17T03:02:39.170Z,9.6
2022-09-17T03:04:43.073Z,9.6
2022-09-17T03:06:47.071Z,9.6
2022-09-17T03:08:50.954Z,9.5
2022-09-17T03:10:54.865Z,9.5
2022-09-17T03:12:58.754Z,9.4
2022-09-17T03:15:02.740Z,9.3
2022-09-17T03:17:09.572Z,9.2
2022-09-17T03:19:13.575Z,9.2
2022-09-17T03:21:17.562Z,9.2
2022-09-17T03:23:35.908Z,9.2
2022-09-17T03:25:39.826Z,9.2
2022-09-17T03:27:43.721Z,9.2
2022-09-17T03:29:50.543Z,9.2
2022-09-17T03:31:54.426Z,9.2
2022-09-17T03:33:58.312Z,9.3
2022-09-17T03:36:02.322Z,9.3
2022-09-17T03:38:06.199Z,9.4
2022-09-17T03:40:10.256Z,9.4
2022-09-17T03:42:14.217Z,9.4
2022-09-17T03:44:21.096Z,9.5
2022-09-17T03:46:25.151Z,9.5
2022-09-17T03:48:28.956Z,9.5
2022-09-17T03:50:32.870Z,9.5
2022-09-17T03:52:36.742Z,9.5
2022-09-17T03:54:40.736Z,9.5
2022-09-17T03:56:44.664Z,9.5
2022-09-17T03:58:51.545Z,9.5
2022-09-17T04:00:55.533Z,9.5
2022-09-17T04:02:59.543Z,9.5
2022-09-17T04:05:03.493Z,9.7
2022-09-17T04:07:07.444Z,9.7
2022-09-17T04:09:11.427Z,9.7
2022-09-17T04:11:15.341Z,9.6
2022-09-17T04:13:22.132Z,9.5
2022-09-17T04:15:26.033Z,9.5
2022-09-17T04:17:30.051Z,9.4
2022-09-17T04:20:37.507Z,9.4
2022-09-17T04:22:41.447Z,9.4
2022-09-17T04:24:45.336Z,9.3
2022-09-17T04:26:52.140Z,9.3
2022-09-17T04:28:56.269Z,9.2
2022-09-17T04:31:00.271Z,9.1
2022-09-17T04:33:04.156Z,9.1
2022-09-17T04:35:08.208Z,9
2022-09-17T04:37:12.177Z,9
2022-09-17T04:39:16.184Z,9
2022-09-17T04:41:23.100Z,9
2022-09-17T04:43:27.067Z,9.1
2022-09-17T04:45:30.966Z,9.1
2022-09-17T04:47:34.971Z,9.2
2022-09-17T04:49:38.968Z,9.2
2022-09-17T04:51:42.960Z,9.2
2022-09-17T04:53:46.953Z,9.1
2022-09-17T04:55:53.750Z,9.1
2022-09-17T04:57:57.634Z,9.2
2022-09-17T05:00:01.564Z,9.1
2022-09-17T05:02:05.609Z,9.1
2022-09-17T05:04:09.466Z,9.1
2022-09-17T05:06:13.466Z,9.2
2022-09-17T05:08:17.467Z,9.1
2022-09-17T05:10:24.409Z,9.1
2022-09-17T05:12:32.404Z,9.1
2022-09-17T05:15:35.852Z,9.2
2022-09-17T05:17:39.824Z,9.2
2022-09-17T05:19:43.727Z,9.2
2022-09-17T05:21:47.725Z,9.3
2022-09-17T05:23:54.523Z,9.3
2022-09-17T05:25:58.410Z,9.3
2022-09-17T05:28:02.331Z,9.4
2022-09-17T05:30:06.328Z,9.4
2022-09-17T05:32:10.354Z,9.5
2022-09-17T05:34:14.303Z,9.5
2022-09-17T05:36:18.225Z,9.6
2022-09-17T05:38:25.156Z,9.8
2022-09-17T05:40:29.528Z,9.7
2022-09-17T05:42:33.160Z,9.6
2022-09-17T05:44:37.169Z,9.5
2022-09-17T05:46:41.235Z,9.5
2022-09-17T05:48:45.151Z,9.5
2022-09-17T05:50:49.140Z,9.5
2022-09-17T05:52:56.034Z,9.4
2022-09-17T05:55:00.033Z,9.4
2022-09-17T05:57:04.065Z,9.4
2022-09-17T05:59:08.026Z,9.4
2022-09-17T06:01:12.019Z,9.3
2022-09-17T06:03:16.024Z,9.4
2022-09-17T06:05:19.896Z,9.4
2022-09-17T06:07:26.720Z,9.4
2022-09-17T06:09:30.738Z,9.4
2022-09-17T06:11:34.696Z,9.4
2022-09-17T06:12:38.162Z,9.4
2022-09-17T06:14:42.141Z,9.4
2022-09-17T06:16:46.086Z,9.4
2022-09-17T06:18:50.048Z,9.4
2022-09-17T06:20:56.966Z,9.3
2022-09-17T06:23:00.928Z,9.3
2022-09-17T06:25:04.943Z,9.3
2022-09-17T06:27:08.907Z,9.4
2022-09-17T06:29:12.798Z,9.4
2022-09-17T06:31:16.809Z,9.5
2022-09-17T06:33:20.784Z,9.6
2022-09-17T06:35:27.588Z,10.1
2022-09-17T06:37:31.543Z,10.2
2022-09-17T06:41:39.442Z,10.2
2022-09-17T06:45:47.406Z,9.9
2022-09-17T06:47:51.317Z,9.9
2022-09-17T06:49:58.216Z,9.9
2022-09-17T06:52:02.217Z,9.9
2022-09-17T06:54:06.133Z,10
2022-09-17T06:56:10.143Z,9.9
2022-09-17T06:58:14.141Z,9.8
2022-09-17T07:00:18.433Z,9.7
2022-09-17T07:02:22.120Z,9.8
2022-09-17T07:04:29.067Z,9.8
2022-09-17T07:08:36.940Z,9.9
2022-09-17T07:11:01.078Z,9.9
2022-09-17T07:13:04.972Z,9.8
2022-09-17T07:15:08.918Z,9.7
2022-09-17T07:17:15.613Z,9.8
2022-09-17T07:19:19.598Z,10
2022-09-17T07:21:23.490Z,10.3
2022-09-17T07:23:28.887Z,10.6
2022-09-17T07:25:32.757Z,11
2022-09-17T07:27:36.629Z,11.2
2022-09-17T07:31:47.395Z,10.7
2022-09-17T07:37:58.991Z,10.5
2022-09-17T07:40:03.121Z,10.5
2022-09-17T07:42:06.803Z,10.7
2022-09-17T07:44:10.718Z,10.9
2022-09-17T07:46:17.557Z,11.1
2022-09-17T07:48:21.386Z,11.2
2022-09-17T07:50:25.401Z,14.3
2022-09-17T07:52:29.187Z,15
2022-09-17T07:54:33.104Z,12.8
2022-09-17T07:56:37.038Z,11.7
2022-09-17T07:58:40.942Z,11.3
2022-09-17T08:00:47.684Z,11
2022-09-17T08:02:51.758Z,10.9
2022-09-17T08:04:55.517Z,11
2022-09-17T08:05:58.912Z,11.6
2022-09-17T08:08:02.871Z,11.6
2022-09-17T08:10:06.762Z,11.8
2022-09-17T08:12:10.677Z,12
2022-09-17T08:14:17.417Z,12.1
2022-09-17T08:16:21.452Z,11.9
2022-09-17T08:18:25.300Z,13.1
2022-09-17T08:20:29.248Z,14.4
2022-09-17T08:26:41.039Z,13.4
2022-09-17T08:28:47.795Z,12.9
2022-09-17T08:30:51.841Z,12.8
2022-09-17T08:32:55.681Z,12.6
2022-09-17T08:34:59.611Z,13.1
2022-09-17T08:37:03.567Z,15.1
2022-09-17T08:39:07.536Z,16.4
2022-09-17T08:41:11.454Z,16.5
2022-09-17T08:43:18.238Z,14
2022-09-17T08:45:22.187Z,13.4
2022-09-17T08:47:26.135Z,12.8
2022-09-17T08:49:30.081Z,12.5
2022-09-17T08:51:34.048Z,12.3
2022-09-17T08:53:37.987Z,12.4
2022-09-17T08:55:41.931Z,14.4
2022-09-17T08:57:48.691Z,14.9
2022-09-17T08:59:52.639Z,15.4
2022-09-17T09:01:56.728Z,15.7
2022-09-17T09:03:00.126Z,14.9
2022-09-17T09:05:03.934Z,14.3
2022-09-17T09:07:07.887Z,13.6
2022-09-17T09:09:11.824Z,13.2
2022-09-17T09:11:18.584Z,12.6
2022-09-17T09:13:22.561Z,12.4
2022-09-17T09:15:26.497Z,12
2022-09-17T09:17:30.486Z,11.7
2022-09-17T09:19:34.394Z,11.6
2022-09-17T09:21:38.336Z,11.5
2022-09-17T09:23:42.295Z,11.5
2022-09-17T09:25:49.085Z,11.5
2022-09-17T09:27:53.023Z,11.5
2022-09-17T09:29:56.974Z,11.6
2022-09-17T09:32:00.892Z,11.6
2022-09-17T09:36:08.771Z,11.5
2022-09-17T09:40:19.664Z,12.1
2022-09-17T09:44:27.329Z,14.7
2022-09-17T09:46:31.358Z,16.3
2022-09-17T09:51:04.698Z,17.3
2022-09-17T09:52:43.082Z,17.7
2022-09-17T09:54:49.840Z,18
2022-09-17T09:56:53.787Z,18.1
2022-09-17T09:58:57.711Z,18.3
2022-09-17T10:00:01.086Z,18.6
2022-09-17T10:02:05.129Z,18.9
2022-09-17T10:04:08.997Z,19.1
2022-09-17T10:06:12.948Z,20.1
2022-09-17T10:08:19.709Z,20.2
2022-09-17T10:10:23.697Z,19.6
2022-09-17T10:12:27.660Z,17.6
2022-09-17T10:14:31.609Z,14.8
2022-09-17T10:16:35.623Z,13.5
2022-09-17T10:18:39.512Z,12.9
2022-09-17T10:20:43.467Z,12.8
2022-09-17T10:22:50.236Z,12.8
2022-09-17T10:24:54.196Z,13
2022-09-17T10:29:02.111Z,15.5
2022-09-17T10:33:10.012Z,14.8
2022-09-17T10:35:13.943Z,13.8
2022-09-17T10:37:20.722Z,12.9
2022-09-17T10:39:24.680Z,12.7
2022-09-17T10:41:28.610Z,12.5
2022-09-17T10:43:32.608Z,13.4
2022-09-17T10:45:36.526Z,15.4
2022-09-17T10:47:40.477Z,16.6
2022-09-17T10:49:44.411Z,16.9
2022-09-17T10:51:51.186Z,17.6
2022-09-17T10:53:55.131Z,17.8
2022-09-17T10:55:59.101Z,18
2022-09-17T10:58:28.823Z,18
2022-09-17T11:00:26.604Z,17.6
2022-09-17T11:02:30.754Z,16
2022-09-17T11:04:37.321Z,14.5
2022-09-17T11:06:41.286Z,14.2
2022-09-17T11:14:57.103Z,13
2022-09-17T11:17:01.068Z,12.8
2022-09-17T11:19:07.818Z,12.2
2022-09-17T11:29:27.569Z,11.3
2022-09-17T11:33:38.289Z,12.4
2022-09-17T11:43:58.048Z,17.7
2022-09-17T11:46:01.966Z,19.1
2022-09-17T11:48:08.699Z,19.2
2022-09-17T11:50:12.641Z,19.6
2022-09-17T11:52:16.593Z,20.9
2022-09-17T11:53:19.973Z,19.7
2022-09-17T11:55:23.934Z,19.3
2022-09-17T11:57:27.861Z,18.1
2022-09-17T11:59:31.827Z,16.5
2022-09-17T12:01:38.671Z,15.6
2022-09-17T12:07:50.463Z,19.1
2022-09-17T12:09:54.426Z,20.2
2022-09-17T12:11:58.381Z,20.9
2022-09-17T12:14:02.328Z,19.3
2022-09-17T12:16:09.163Z,14.6
2022-09-17T12:18:31.116Z,13.7
2022-09-17T12:20:17.004Z,13
2022-09-17T12:22:20.957Z,12.6
2022-09-17T12:24:24.937Z,12.7
2022-09-17T12:26:28.862Z,12.6
2022-09-17T12:28:32.819Z,12.8
2022-09-17T12:30:39.591Z,12.9
2022-09-17T12:32:43.555Z,12.9
2022-09-17T12:34:47.501Z,13.3
2022-09-17T12:36:51.465Z,13.8
2022-09-17T12:38:59.449Z,13.6
2022-09-17T12:40:59.340Z,13.3
2022-09-17T12:43:03.349Z,13.1
2022-09-17T12:45:10.120Z,13.4
2022-09-17T12:47:14.046Z,13.5
2022-09-17T12:49:17.975Z,13.9
2022-09-17T12:58:39.940Z,12.4
2022-09-17T13:00:43.955Z,12.3
2022-09-17T13:06:55.733Z,13.5
2022-09-17T13:08:59.677Z,13.7
2022-09-17T13:11:03.607Z,13.5
2022-09-17T13:15:14.321Z,13.6
2022-09-17T13:17:18.269Z,14.1
2022-09-17T13:19:22.817Z,14.6
2022-09-17T13:21:27.646Z,15.5
2022-09-17T13:25:35.493Z,18.8
2022-09-17T13:29:46.205Z,18.1
2022-09-17T13:31:50.265Z,18.9
2022-09-17T13:33:54.096Z,16.9
2022-09-17T13:35:58.029Z,15.4
2022-09-17T13:38:02.005Z,15.9
2022-09-17T13:40:05.986Z,16.6
2022-09-17T13:42:12.695Z,15.7
2022-09-17T13:44:16.656Z,16.5
2022-09-17T13:46:20.651Z,18.2
2022-09-17T13:47:23.965Z,19.3
2022-09-17T13:49:27.945Z,19.7
2022-09-17T13:51:31.890Z,19
2022-09-17T13:53:35.847Z,16.9
2022-09-17T13:55:42.604Z,15
2022-09-17T13:57:46.552Z,14.5
2022-09-17T13:59:50.496Z,14.2
2022-09-17T14:01:54.465Z,14.3
2022-09-17T14:03:58.426Z,14.6
2022-09-17T14:06:02.402Z,14
2022-09-17T14:08:06.339Z,14.2
2022-09-17T14:10:13.110Z,13.9
2022-09-17T14:12:17.089Z,13.7
2022-09-17T14:14:21.047Z,13.6
2022-09-17T14:16:25.057Z,13.4
2022-09-17T14:18:28.925Z,13.1
2022-09-17T14:20:33.002Z,13
2022-09-17T14:22:36.880Z,12.9
2022-09-17T14:24:43.603Z,12.8
2022-09-17T14:26:47.560Z,12.7
2022-09-17T14:30:55.535Z,12.6
2022-09-17T14:32:59.437Z,12.6
2022-09-17T14:35:03.363Z,12.7
2022-09-17T14:37:07.316Z,12.6
2022-09-17T14:39:14.197Z,12.6
2022-09-17T14:41:18.143Z,12.6
2022-09-17T14:43:22.074Z,12.6
2022-09-17T14:47:55.744Z,12.6
2022-09-17T14:49:59.773Z,12.9
2022-09-17T14:52:06.563Z,13.2
2022-09-17T14:54:10.480Z,13.2
2022-09-17T14:56:14.441Z,13.5
2022-09-17T14:58:18.463Z,13.3
2022-09-17T15:00:22.534Z,12.9
2022-09-17T15:02:26.422Z,12.9
2022-09-17T15:04:30.325Z,12.9
2022-09-17T15:06:37.089Z,13.5
2022-09-17T15:08:41.011Z,13.5
2022-09-17T15:10:44.960Z,13.4
2022-09-17T15:12:48.916Z,13.4
2022-09-17T15:14:52.866Z,13.4
2022-09-17T15:16:56.775Z,13.4
2022-09-17T15:19:00.788Z,13.4
2022-09-17T15:21:07.479Z,13.4
2022-09-17T15:23:11.447Z,13.4
2022-09-17T15:25:15.381Z,13.5
2022-09-17T15:31:27.433Z,13.8
2022-09-17T15:40:49.380Z,14.4
2022-09-17T15:42:53.320Z,14.4
2022-09-17T15:44:57.310Z,14.4
2022-09-17T15:47:01.286Z,14.3
2022-09-17T15:49:07.985Z,14.2
2022-09-17T15:51:11.947Z,14.1
2022-09-17T15:53:15.899Z,13.9
2022-09-17T15:55:19.844Z,13.7
2022-09-17T15:57:23.815Z,13.6
2022-09-17T15:59:27.783Z,13.4
2022-09-17T16:01:31.752Z,13.3
2022-09-17T16:03:38.494Z,13.4
2022-09-17T16:05:42.452Z,13.5
2022-09-17T16:07:46.448Z,13.6
2022-09-17T16:11:54.295Z,13.7
2022-09-17T16:13:58.254Z,13.7
2022-09-17T16:16:02.194Z,13.6
2022-09-17T16:18:08.922Z,13.6
2022-09-17T16:20:12.868Z,13.7
2022-09-17T16:22:16.824Z,13.8
2022-09-17T16:24:20.769Z,13.8
2022-09-17T16:26:24.704Z,13.7
2022-09-17T16:28:28.664Z,13.7
2022-09-17T16:30:32.634Z,13.6
2022-09-17T16:32:39.372Z,13.6
2022-09-17T16:34:43.316Z,13.6
2022-09-17T16:36:47.271Z,13.5
2022-09-17T16:37:50.689Z,13.6
2022-09-17T16:39:54.731Z,13.5
2022-09-17T16:41:58.563Z,13.5
2022-09-17T16:46:09.356Z,13.5
2022-09-17T16:48:13.246Z,13.5
2022-09-17T16:50:17.188Z,13.4
2022-09-17T16:52:21.135Z,13.4
2022-09-17T16:54:25.086Z,13.4
2022-09-17T16:56:29.040Z,13.2
2022-09-17T17:00:39.881Z,13
2022-09-17T17:02:43.827Z,12.9
2022-09-17T17:04:47.714Z,12.8
2022-09-17T17:06:51.657Z,12.7
2022-09-17T17:10:59.564Z,12.6
2022-09-17T17:13:03.610Z,12.6
2022-09-17T17:15:10.340Z,12.5
2022-09-17T17:17:14.291Z,12.4
2022-09-17T17:19:18.209Z,12.4
2022-09-17T17:21:22.205Z,12.4
2022-09-17T17:25:30.082Z,12.4
2022-09-17T17:27:34.013Z,12.4
2022-09-17T17:29:40.744Z,12.4
2022-09-17T17:31:44.737Z,12.4
2022-09-17T17:33:48.634Z,12.4
2022-09-17T17:34:52.002Z,12.3
2022-09-17T17:36:55.958Z,12.3
2022-09-17T17:38:59.867Z,12.3
2022-09-17T17:41:03.807Z,12.4
2022-09-17T17:43:10.557Z,12.3
2022-09-17T17:47:18.454Z,12.2
2022-09-17T17:49:22.390Z,12.2
2022-09-17T17:57:40.922Z,11.6
2022-09-17T17:59:44.838Z,11.6
2022-09-17T18:01:48.908Z,11.5
2022-09-17T18:03:52.827Z,11.4
2022-09-17T18:05:56.778Z,11.4
2022-09-17T18:08:00.793Z,11.4
2022-09-17T18:10:04.737Z,11.4
2022-09-17T18:12:11.464Z,11.3
2022-09-17T18:14:15.408Z,11.3
2022-09-17T18:16:19.384Z,11.2
2022-09-17T18:18:23.275Z,11.1
2022-09-17T18:20:27.317Z,11
2022-09-17T18:22:31.242Z,11.1
2022-09-17T18:24:35.173Z,11.1
2022-09-17T18:26:41.928Z,11
2022-09-17T18:28:45.939Z,10.9
2022-09-17T18:30:49.857Z,10.9
2022-09-17T18:33:19.696Z,10.9
2022-09-17T18:35:23.734Z,10.9
2022-09-17T18:37:27.655Z,10.8
2022-09-17T18:39:58.346Z,10.7
2022-09-17T18:41:38.307Z,10.7
2022-09-17T18:43:42.236Z,10.7
2022-09-17T18:45:46.175Z,10.7
2022-09-17T18:47:50.126Z,10.6
2022-09-17T18:49:54.121Z,10.7
2022-09-17T18:51:58.034Z,10.6
2022-09-17T18:56:08.702Z,10.7
2022-09-17T18:58:12.624Z,10.8
2022-09-17T19:00:16.554Z,10.8
2022-09-17T19:02:20.482Z,10.8
2022-09-17T19:04:24.407Z,10.9
2022-09-17T19:06:28.412Z,10.8
2022-09-17T19:08:35.147Z,10.9
2022-09-17T19:10:39.104Z,10.9
2022-09-17T19:12:43.022Z,10.8
2022-09-17T19:14:47.021Z,10.8
2022-09-17T19:16:51.061Z,10.8
2022-09-17T19:18:56.489Z,10.9
2022-09-17T19:21:00.391Z,10.9
2022-09-17T19:23:07.137Z,10.8
2022-09-17T19:25:11.126Z,10.7
2022-09-17T19:27:15.042Z,10.6
2022-09-17T19:28:18.400Z,10.5
2022-09-17T19:30:22.341Z,10.5
2022-09-17T19:32:26.245Z,10.5
2022-09-17T19:34:30.170Z,10.5
2022-09-17T19:36:37.131Z,10.5
2022-09-17T19:38:41.048Z,10.5
2022-09-17T19:40:44.958Z,10.5
2022-09-17T19:42:48.879Z,10.5
2022-09-17T19:44:52.889Z,10.4
2022-09-17T19:46:56.854Z,10.5
2022-09-17T19:49:00.780Z,10.5
2022-09-17T19:51:07.451Z,10.5
2022-09-17T19:53:11.356Z,10.5
2022-09-17T19:55:15.300Z,10.6
2022-09-17T19:57:19.226Z,10.5
2022-09-17T19:59:23.139Z,10.5
2022-09-17T20:01:27.090Z,10.5
2022-09-17T20:03:30.958Z,10.5
2022-09-17T20:05:37.710Z,10.5
2022-09-17T20:07:41.611Z,10.4
2022-09-17T20:09:45.531Z,10.4
2022-09-17T20:13:53.484Z,10.5
2022-09-17T20:18:01.383Z,10.5
2022-09-17T20:22:12.245Z,10.4
2022-09-17T20:24:16.274Z,10.4
2022-09-17T20:25:19.729Z,10.4
2022-09-17T20:27:23.638Z,10.3
2022-09-17T20:29:27.564Z,10.3
2022-09-17T20:31:31.521Z,10.3
2022-09-17T20:33:38.193Z,10.3
2022-09-17T20:35:42.235Z,10.2
2022-09-17T20:38:51.523Z,10.2
2022-09-17T20:39:50.161Z,10.3
2022-09-17T20:41:54.153Z,10.3
2022-09-17T20:43:58.075Z,10.3
2022-09-17T20:46:02.164Z,10.3
2022-09-17T20:48:08.820Z,10.2
2022-09-17T20:50:12.859Z,10.2
2022-09-17T20:52:19.139Z,10.3
2022-09-17T20:54:20.859Z,10.2
2022-09-17T20:56:24.752Z,10.2
2022-09-17T20:58:28.708Z,10.2
2022-09-17T21:00:32.720Z,10.2
2022-09-17T21:02:39.327Z,10.1
2022-09-17T21:04:43.112Z,10.1
2022-09-17T21:06:47.129Z,10
2022-09-17T21:08:51.160Z,10
2022-09-17T21:10:55.185Z,10
2022-09-17T21:12:59.192Z,10
2022-09-17T21:15:03.201Z,9.9
2022-09-17T21:17:10.033Z,9.9
2022-09-17T21:19:14.040Z,9.9
2022-09-17T21:21:17.963Z,9.9
2022-09-17T21:22:21.335Z,9.9
2022-09-17T21:30:40.142Z,9.8
2022-09-17T21:32:44.014Z,9.8
2022-09-17T21:34:47.933Z,9.8
2022-09-17T21:36:51.837Z,9.7
2022-09-17T21:40:59.755Z,9.7
2022-09-17T21:43:03.680Z,9.6
2022-09-17T21:45:10.496Z,9.6
2022-09-17T21:51:22.337Z,9.6
2022-09-17T21:55:30.329Z,9.7
2022-09-17T21:59:41.250Z,9.8
2022-09-17T22:01:45.295Z,9.8
2022-09-17T22:03:49.170Z,9.8
2022-09-17T22:07:57.176Z,9.7
2022-09-17T22:10:01.107Z,9.7
2022-09-17T22:12:05.078Z,9.7
2022-09-17T22:14:11.996Z,9.8
2022-09-17T22:16:16.081Z,9.8
2022-09-17T22:18:19.983Z,9.9
2022-09-17T22:20:49.737Z,9.9
2022-09-17T22:33:16.231Z,9.7
2022-09-17T22:41:34.967Z,9.7
2022-09-17T22:43:38.881Z,9.7
2022-09-17T22:47:46.787Z,9.7
2022-09-17T22:53:58.806Z,9.7
2022-09-17T22:56:05.448Z,9.6
2022-09-17T22:58:09.449Z,9.6
2022-09-17T23:02:17.468Z,9.5
2022-09-17T23:04:21.476Z,9.4
2022-09-17T23:06:25.364Z,9.4
2022-09-17T23:08:29.359Z,9.4
2022-09-17T23:10:36.276Z,9.4
2022-09-17T23:12:40.192Z,9.4
2022-09-17T23:14:44.053Z,9.4
2022-09-17T23:15:47.498Z,9.4
2022-09-17T23:17:51.314Z,9.4
2022-09-17T23:21:59.222Z,9.3
2022-09-17T23:24:06.100Z,9.3
2022-09-17T23:26:10.061Z,9.3
2022-09-17T23:28:14.049Z,9.3
2022-09-17T23:30:18.035Z,9.3
2022-09-17T23:32:22.020Z,9.4
2022-09-17T23:34:25.923Z,9.4
2022-09-17T23:36:29.887Z,9.4
2022-09-17T23:42:44.717Z,9.5
2022-09-17T23:44:48.700Z,9.5
2022-09-17T23:46:52.683Z,9.5
2022-09-17T23:48:56.651Z,9.6
2022-09-17T23:51:00.599Z,9.6
2022-09-17T23:53:07.413Z,9.6
2022-09-17T23:55:11.431Z,9.6
2022-09-17T23:57:15.394Z,9.6
2022-09-17T23:59:19.411Z,9.7
